sensor_id;sensor_type;location;lat;lon;timestamp;pressure;altitude;pressure_sealevel;temperature;humidity
75221;BME280;63802;53.232;6.570;2024-01-06T00:01:49;100389.50;;;0.92;100.00
75221;BME280;63802;53.232;6.570;2024-01-06T00:04:14;100393.47;;;0.95;100.00
75221;BME280;63802;53.232;6.570;2024-01-06T00:06:40;100406.56;;;0.96;100.00
75221;BME280;63802;53.232;6.570;2024-01-06T00:09:05;100413.53;;;0.97;100.00
75221;BME280;63802;53.232;6.570;2024-01-06T00:11:31;100393.72;;;0.85;100.00
75221;BME280;63802;53.232;6.570;2024-01-06T00:13:56;100378.03;;;0.70;100.00
75221;BME280;63802;53.232;6.570;2024-01-06T00:16:22;100426.50;;;0.95;100.00
75221;BME280;63802;53.232;6.570;2024-01-06T00:18:50;100390.66;;;0.69;100.00
75221;BME280;63802;53.232;6.570;2024-01-06T00:21:15;100418.22;;;0.83;100.00
75221;BME280;63802;53.232;6.570;2024-01-06T00:23:41;100428.50;;;0.90;100.00
75221;BME280;63802;53.232;6.570;2024-01-06T00:26:07;100433.72;;;0.86;100.00
75221;BME280;63802;53.232;6.570;2024-01-06T00:28:33;100437.16;;;0.87;100.00
75221;BME280;63802;53.232;6.570;2024-01-06T00:30:59;100449.81;;;0.86;100.00
75221;BME280;63802;53.232;6.570;2024-01-06T00:33:24;100436.31;;;0.78;100.00
75221;BME280;63802;53.232;6.570;2024-01-06T00:35:49;100452.34;;;0.91;100.00
75221;BME280;63802;53.232;6.570;2024-01-06T00:38:15;100454.56;;;0.89;100.00
75221;BME280;63802;53.232;6.570;2024-01-06T00:40:40;100453.78;;;0.89;100.00
75221;BME280;63802;53.232;6.570;2024-01-06T00:43:05;100438.06;;;0.74;100.00
75221;BME280;63802;53.232;6.570;2024-01-06T00:45:31;100459.44;;;0.87;100.00
75221;BME280;63802;53.232;6.570;2024-01-06T00:47:57;100462.75;;;0.84;100.00
75221;BME280;63802;53.232;6.570;2024-01-06T00:50:23;100460.38;;;0.83;100.00
75221;BME280;63802;53.232;6.570;2024-01-06T00:52:48;100469.34;;;0.78;100.00
75221;BME280;63802;53.232;6.570;2024-01-06T00:55:18;100471.72;;;0.80;100.00
75221;BME280;63802;53.232;6.570;2024-01-06T00:57:43;100475.69;;;0.82;100.00
75221;BME280;63802;53.232;6.570;2024-01-06T01:00:09;100479.59;;;0.76;100.00
75221;BME280;63802;53.232;6.570;2024-01-06T01:02:34;100484.84;;;0.81;100.00
75221;BME280;63802;53.232;6.570;2024-01-06T01:05:00;100494.00;;;0.80;100.00
75221;BME280;63802;53.232;6.570;2024-01-06T01:07:27;100483.69;;;0.74;100.00
75221;BME280;63802;53.232;6.570;2024-01-06T01:09:52;100489.50;;;0.67;100.00
75221;BME280;63802;53.232;6.570;2024-01-06T01:12:18;100491.19;;;0.63;100.00
75221;BME280;63802;53.232;6.570;2024-01-06T01:14:43;100508.94;;;0.73;100.00
75221;BME280;63802;53.232;6.570;2024-01-06T01:17:09;100514.03;;;0.74;100.00
75221;BME280;63802;53.232;6.570;2024-01-06T01:19:34;100504.13;;;0.61;100.00
75221;BME280;63802;53.232;6.570;2024-01-06T01:22:00;100521.09;;;0.70;100.00
75221;BME280;63802;53.232;6.570;2024-01-06T01:24:26;100532.13;;;0.68;100.00
75221;BME280;63802;53.232;6.570;2024-01-06T01:26:51;100523.88;;;0.65;100.00
75221;BME280;63802;53.232;6.570;2024-01-06T01:29:17;100522.09;;;0.60;100.00
75221;BME280;63802;53.232;6.570;2024-01-06T01:31:46;100524.19;;;0.63;100.00
75221;BME280;63802;53.232;6.570;2024-01-06T01:34:15;100535.00;;;0.72;100.00
75221;BME280;63802;53.232;6.570;2024-01-06T01:36:40;100541.97;;;0.73;100.00
75221;BME280;63802;53.232;6.570;2024-01-06T01:39:06;100530.97;;;0.61;100.00
75221;BME280;63802;53.232;6.570;2024-01-06T01:41:31;100538.31;;;0.69;100.00
75221;BME280;63802;53.232;6.570;2024-01-06T01:44:01;100521.94;;;0.57;100.00
75221;BME280;63802;53.232;6.570;2024-01-06T01:46:27;100521.81;;;0.62;100.00
75221;BME280;63802;53.232;6.570;2024-01-06T01:48:57;100538.41;;;0.64;100.00
75221;BME280;63802;53.232;6.570;2024-01-06T01:51:29;100534.06;;;0.54;100.00
75221;BME280;63802;53.232;6.570;2024-01-06T01:53:57;100534.88;;;0.55;100.00
75221;BME280;63802;53.232;6.570;2024-01-06T01:56:24;100540.84;;;0.52;100.00
75221;BME280;63802;53.232;6.570;2024-01-06T01:58:51;100540.25;;;0.55;100.00
75221;BME280;63802;53.232;6.570;2024-01-06T02:01:17;100530.69;;;0.49;100.00
75221;BME280;63802;53.232;6.570;2024-01-06T02:03:42;100541.00;;;0.55;100.00
75221;BME280;63802;53.232;6.570;2024-01-06T02:06:11;100544.91;;;0.49;100.00
75221;BME280;63802;53.232;6.570;2024-01-06T02:08:37;100544.22;;;0.44;100.00
75221;BME280;63802;53.232;6.570;2024-01-06T02:11:03;100514.25;;;0.28;100.00
75221;BME280;63802;53.232;6.570;2024-01-06T02:13:36;100547.91;;;0.48;100.00
75221;BME280;63802;53.232;6.570;2024-01-06T02:16:03;100568.28;;;0.49;100.00
75221;BME280;63802;53.232;6.570;2024-01-06T02:18:28;100567.78;;;0.47;100.00
75221;BME280;63802;53.232;6.570;2024-01-06T02:21:00;100547.84;;;0.26;100.00
75221;BME280;63802;53.232;6.570;2024-01-06T02:23:26;100544.16;;;0.22;100.00
75221;BME280;63802;53.232;6.570;2024-01-06T02:25:52;100555.16;;;0.34;100.00
75221;BME280;63802;53.232;6.570;2024-01-06T02:28:18;100534.34;;;0.17;100.00
75221;BME280;63802;53.232;6.570;2024-01-06T02:30:44;100589.25;;;0.47;100.00
75221;BME280;63802;53.232;6.570;2024-01-06T02:33:09;100534.84;;;0.19;100.00
75221;BME280;63802;53.232;6.570;2024-01-06T02:35:35;100583.41;;;0.45;100.00
75221;BME280;63802;53.232;6.570;2024-01-06T02:38:03;100541.88;;;0.15;100.00
75221;BME280;63802;53.232;6.570;2024-01-06T02:40:32;100585.22;;;0.36;100.00
75221;BME280;63802;53.232;6.570;2024-01-06T02:42:58;100587.38;;;0.34;100.00
75221;BME280;63802;53.232;6.570;2024-01-06T02:45:23;100595.63;;;0.37;100.00
75221;BME280;63802;53.232;6.570;2024-01-06T02:47:49;100592.56;;;0.30;100.00
75221;BME280;63802;53.232;6.570;2024-01-06T02:50:14;100605.28;;;0.38;100.00
75221;BME280;63802;53.232;6.570;2024-01-06T02:52:39;100599.72;;;0.35;100.00
75221;BME280;63802;53.232;6.570;2024-01-06T02:55:05;100603.47;;;0.34;100.00
75221;BME280;63802;53.232;6.570;2024-01-06T02:57:31;100597.72;;;0.27;100.00
75221;BME280;63802;53.232;6.570;2024-01-06T02:59:57;100609.84;;;0.38;100.00
75221;BME280;63802;53.232;6.570;2024-01-06T03:02:23;100606.47;;;0.32;100.00
75221;BME280;63802;53.232;6.570;2024-01-06T03:04:51;100594.53;;;0.25;100.00
75221;BME280;63802;53.232;6.570;2024-01-06T03:07:17;100614.72;;;0.36;100.00
75221;BME280;63802;53.232;6.570;2024-01-06T03:09:43;100628.91;;;0.36;100.00
75221;BME280;63802;53.232;6.570;2024-01-06T03:12:08;100624.94;;;0.34;100.00
75221;BME280;63802;53.232;6.570;2024-01-06T03:14:35;100636.78;;;0.33;100.00
75221;BME280;63802;53.232;6.570;2024-01-06T03:17:00;100641.03;;;0.34;100.00
75221;BME280;63802;53.232;6.570;2024-01-06T03:19:26;100638.06;;;0.35;100.00
75221;BME280;63802;53.232;6.570;2024-01-06T03:21:53;100637.38;;;0.30;100.00
75221;BME280;63802;53.232;6.570;2024-01-06T03:24:18;100610.97;;;0.10;100.00
75221;BME280;63802;53.232;6.570;2024-01-06T03:26:44;100647.03;;;0.31;100.00
75221;BME280;63802;53.232;6.570;2024-01-06T03:29:09;100658.97;;;0.38;100.00
75221;BME280;63802;53.232;6.570;2024-01-06T03:31:34;100636.47;;;0.21;100.00
75221;BME280;63802;53.232;6.570;2024-01-06T03:34:00;100627.94;;;0.19;100.00
75221;BME280;63802;53.232;6.570;2024-01-06T03:36:25;100635.91;;;0.24;100.00
75221;BME280;63802;53.232;6.570;2024-01-06T03:38:51;100654.75;;;0.32;100.00
75221;BME280;63802;53.232;6.570;2024-01-06T03:41:16;100662.50;;;0.34;100.00
75221;BME280;63802;53.232;6.570;2024-01-06T03:43:41;100640.66;;;0.13;100.00
75221;BME280;63802;53.232;6.570;2024-01-06T03:46:07;100659.94;;;0.29;100.00
75221;BME280;63802;53.232;6.570;2024-01-06T03:48:32;100646.31;;;0.25;100.00
75221;BME280;63802;53.232;6.570;2024-01-06T03:51:01;100668.50;;;0.31;100.00
75221;BME280;63802;53.232;6.570;2024-01-06T03:53:27;100662.72;;;0.24;100.00
75221;BME280;63802;53.232;6.570;2024-01-06T03:55:52;100679.00;;;0.27;100.00
75221;BME280;63802;53.232;6.570;2024-01-06T03:58:18;100678.22;;;0.27;100.00
75221;BME280;63802;53.232;6.570;2024-01-06T04:00:43;100644.81;;;0.06;100.00
75221;BME280;63802;53.232;6.570;2024-01-06T04:03:08;100659.13;;;0.15;100.00
75221;BME280;63802;53.232;6.570;2024-01-06T04:05:36;100674.84;;;0.21;100.00
75221;BME280;63802;53.232;6.570;2024-01-06T04:08:01;100676.22;;;0.19;100.00
75221;BME280;63802;53.232;6.570;2024-01-06T04:10:27;100680.69;;;0.23;100.00
75221;BME280;63802;53.232;6.570;2024-01-06T04:12:52;100686.78;;;0.29;100.00
75221;BME280;63802;53.232;6.570;2024-01-06T04:15:17;100694.81;;;0.29;100.00
75221;BME280;63802;53.232;6.570;2024-01-06T04:17:43;100662.69;;;0.10;100.00
75221;BME280;63802;53.232;6.570;2024-01-06T04:20:09;100696.91;;;0.32;100.00
75221;BME280;63802;53.232;6.570;2024-01-06T04:22:38;100703.88;;;0.33;100.00
75221;BME280;63802;53.232;6.570;2024-01-06T04:25:04;100709.41;;;0.23;100.00
75221;BME280;63802;53.232;6.570;2024-01-06T04:27:29;100707.22;;;0.25;100.00
75221;BME280;63802;53.232;6.570;2024-01-06T04:29:56;100724.94;;;0.26;100.00
75221;BME280;63802;53.232;6.570;2024-01-06T04:32:21;100708.44;;;0.19;100.00
75221;BME280;63802;53.232;6.570;2024-01-06T04:34:47;100723.81;;;0.27;100.00
75221;BME280;63802;53.232;6.570;2024-01-06T04:37:12;100723.22;;;0.30;100.00
75221;BME280;63802;53.232;6.570;2024-01-06T04:39:38;100704.63;;;0.20;100.00
75221;BME280;63802;53.232;6.570;2024-01-06T04:42:04;100733.88;;;0.35;100.00
75221;BME280;63802;53.232;6.570;2024-01-06T04:44:30;100728.50;;;0.35;100.00
75221;BME280;63802;53.232;6.570;2024-01-06T04:46:58;100724.13;;;0.25;100.00
75221;BME280;63802;53.232;6.570;2024-01-06T04:49:24;100725.13;;;0.29;100.00
75221;BME280;63802;53.232;6.570;2024-01-06T04:51:49;100726.31;;;0.23;100.00
75221;BME280;63802;53.232;6.570;2024-01-06T04:54:14;100694.38;;;-0.06;100.00
75221;BME280;63802;53.232;6.570;2024-01-06T04:56:40;100753.34;;;0.27;100.00
75221;BME280;63802;53.232;6.570;2024-01-06T04:59:05;100720.31;;;0.13;100.00
75221;BME280;63802;53.232;6.570;2024-01-06T05:01:32;100762.09;;;0.32;100.00
75221;BME280;63802;53.232;6.570;2024-01-06T05:03:58;100743.38;;;0.14;100.00
75221;BME280;63802;53.232;6.570;2024-01-06T05:06:24;100762.00;;;0.24;100.00
75221;BME280;63802;53.232;6.570;2024-01-06T05:08:50;100776.91;;;0.30;100.00
75221;BME280;63802;53.232;6.570;2024-01-06T05:11:15;100772.13;;;0.27;100.00
75221;BME280;63802;53.232;6.570;2024-01-06T05:13:41;100776.31;;;0.33;100.00
75221;BME280;63802;53.232;6.570;2024-01-06T05:16:08;100779.81;;;0.33;100.00
75221;BME280;63802;53.232;6.570;2024-01-06T05:18:34;100758.69;;;0.13;100.00
75221;BME280;63802;53.232;6.570;2024-01-06T05:20:59;100779.19;;;0.36;100.00
75221;BME280;63802;53.232;6.570;2024-01-06T05:23:25;100786.75;;;0.34;100.00
75221;BME280;63802;53.232;6.570;2024-01-06T05:25:50;100791.31;;;0.34;100.00
75221;BME280;63802;53.232;6.570;2024-01-06T05:28:16;100793.72;;;0.35;100.00
75221;BME280;63802;53.232;6.570;2024-01-06T05:30:41;100762.97;;;0.14;100.00
75221;BME280;63802;53.232;6.570;2024-01-06T05:33:10;100759.47;;;0.14;100.00
75221;BME280;63802;53.232;6.570;2024-01-06T05:35:35;100803.88;;;0.38;100.00
75221;BME280;63802;53.232;6.570;2024-01-06T05:38:01;100805.25;;;0.36;100.00
75221;BME280;63802;53.232;6.570;2024-01-06T05:40:26;100801.06;;;0.43;100.00
75221;BME280;63802;53.232;6.570;2024-01-06T05:42:52;100803.56;;;0.40;100.00
75221;BME280;63802;53.232;6.570;2024-01-06T05:45:21;100826.03;;;0.44;100.00
75221;BME280;63802;53.232;6.570;2024-01-06T05:47:46;100828.13;;;0.47;100.00
75221;BME280;63802;53.232;6.570;2024-01-06T05:50:15;100832.50;;;0.43;100.00
75221;BME280;63802;53.232;6.570;2024-01-06T05:52:40;100813.09;;;0.32;100.00
75221;BME280;63802;53.232;6.570;2024-01-06T05:55:06;100820.31;;;0.32;100.00
75221;BME280;63802;53.232;6.570;2024-01-06T05:57:32;100850.41;;;0.47;100.00
75221;BME280;63802;53.232;6.570;2024-01-06T05:59:58;100842.22;;;0.39;100.00
75221;BME280;63802;53.232;6.570;2024-01-06T06:02:24;100857.97;;;0.45;100.00
75221;BME280;63802;53.232;6.570;2024-01-06T06:04:49;100832.75;;;0.28;100.00
75221;BME280;63802;53.232;6.570;2024-01-06T06:07:15;100840.41;;;0.34;100.00
75221;BME280;63802;53.232;6.570;2024-01-06T06:09:41;100866.28;;;0.44;100.00
75221;BME280;63802;53.232;6.570;2024-01-06T06:12:06;100866.50;;;0.47;100.00
75221;BME280;63802;53.232;6.570;2024-01-06T06:14:32;100842.97;;;0.26;100.00
75221;BME280;63802;53.232;6.570;2024-01-06T06:16:57;100852.53;;;0.32;100.00
75221;BME280;63802;53.232;6.570;2024-01-06T06:19:22;100882.81;;;0.51;100.00
75221;BME280;63802;53.232;6.570;2024-01-06T06:21:48;100887.69;;;0.49;100.00
75221;BME280;63802;53.232;6.570;2024-01-06T06:24:13;100893.53;;;0.51;100.00
75221;BME280;63802;53.232;6.570;2024-01-06T06:26:39;100894.16;;;0.48;100.00
75221;BME280;63802;53.232;6.570;2024-01-06T06:29:04;100905.31;;;0.55;100.00
75221;BME280;63802;53.232;6.570;2024-01-06T06:31:30;100906.47;;;0.49;100.00
75221;BME280;63802;53.232;6.570;2024-01-06T06:33:55;100914.66;;;0.57;100.00
75221;BME280;63802;53.232;6.570;2024-01-06T06:36:20;100934.31;;;0.53;100.00
75221;BME280;63802;53.232;6.570;2024-01-06T06:38:46;100929.47;;;0.55;100.00
75221;BME280;63802;53.232;6.570;2024-01-06T06:41:11;100935.63;;;0.55;100.00
75221;BME280;63802;53.232;6.570;2024-01-06T06:43:37;100929.97;;;0.57;100.00
75221;BME280;63802;53.232;6.570;2024-01-06T06:46:02;100941.28;;;0.54;100.00
75221;BME280;63802;53.232;6.570;2024-01-06T06:48:28;100947.47;;;0.54;100.00
75221;BME280;63802;53.232;6.570;2024-01-06T06:50:53;100927.50;;;0.42;100.00
75221;BME280;63802;53.232;6.570;2024-01-06T06:53:19;100956.81;;;0.57;100.00
75221;BME280;63802;53.232;6.570;2024-01-06T06:55:44;100958.38;;;0.58;100.00
75221;BME280;63802;53.232;6.570;2024-01-06T06:58:12;100957.97;;;0.51;100.00
75221;BME280;63802;53.232;6.570;2024-01-06T07:00:38;100975.31;;;0.58;100.00
75221;BME280;63802;53.232;6.570;2024-01-06T07:03:04;100960.94;;;0.49;100.00
75221;BME280;63802;53.232;6.570;2024-01-06T07:05:29;100983.09;;;0.60;100.00
75221;BME280;63802;53.232;6.570;2024-01-06T07:07:55;100951.75;;;0.37;100.00
75221;BME280;63802;53.232;6.570;2024-01-06T07:10:20;100958.72;;;0.38;100.00
75221;BME280;63802;53.232;6.570;2024-01-06T07:12:48;100976.69;;;0.56;100.00
75221;BME280;63802;53.232;6.570;2024-01-06T07:15:14;100998.59;;;0.63;100.00
75221;BME280;63802;53.232;6.570;2024-01-06T07:17:39;100998.09;;;0.61;100.00
75221;BME280;63802;53.232;6.570;2024-01-06T07:20:08;100989.59;;;0.54;100.00
75221;BME280;63802;53.232;6.570;2024-01-06T07:22:34;101006.66;;;0.63;100.00
75221;BME280;63802;53.232;6.570;2024-01-06T07:25:02;100992.78;;;0.56;100.00
75221;BME280;63802;53.232;6.570;2024-01-06T07:27:28;101015.19;;;0.65;100.00
75221;BME280;63802;53.232;6.570;2024-01-06T07:29:54;100976.69;;;0.37;100.00
75221;BME280;63802;53.232;6.570;2024-01-06T07:32:22;101015.56;;;0.58;100.00
75221;BME280;63802;53.232;6.570;2024-01-06T07:34:47;101023.63;;;0.58;100.00
75221;BME280;63802;53.232;6.570;2024-01-06T07:37:15;101010.50;;;0.57;100.00
75221;BME280;63802;53.232;6.570;2024-01-06T07:39:41;101025.94;;;0.65;100.00
75221;BME280;63802;53.232;6.570;2024-01-06T07:42:07;101024.63;;;0.62;100.00
75221;BME280;63802;53.232;6.570;2024-01-06T07:44:33;101027.03;;;0.64;100.00
75221;BME280;63802;53.232;6.570;2024-01-06T07:46:58;101023.34;;;0.60;100.00
75221;BME280;63802;53.232;6.570;2024-01-06T07:49:24;101026.25;;;0.63;100.00
75221;BME280;63802;53.232;6.570;2024-01-06T07:51:49;101037.22;;;0.67;100.00
75221;BME280;63802;53.232;6.570;2024-01-06T07:54:14;100995.13;;;0.44;100.00
75221;BME280;63802;53.232;6.570;2024-01-06T07:56:40;101045.84;;;0.64;100.00
75221;BME280;63802;53.232;6.570;2024-01-06T07:59:05;101013.25;;;0.52;100.00
75221;BME280;63802;53.232;6.570;2024-01-06T08:01:31;101039.97;;;0.62;100.00
75221;BME280;63802;53.232;6.570;2024-01-06T08:03:57;101044.72;;;0.65;100.00
75221;BME280;63802;53.232;6.570;2024-01-06T08:06:22;101030.94;;;0.53;100.00
75221;BME280;63802;53.232;6.570;2024-01-06T08:08:48;101060.78;;;0.70;100.00
75221;BME280;63802;53.232;6.570;2024-01-06T08:11:13;101036.78;;;0.60;100.00
75221;BME280;63802;53.232;6.570;2024-01-06T08:13:39;101029.94;;;0.49;100.00
75221;BME280;63802;53.232;6.570;2024-01-06T08:16:04;101043.72;;;0.61;100.00
75221;BME280;63802;53.232;6.570;2024-01-06T08:18:30;101046.91;;;0.63;100.00
75221;BME280;63802;53.232;6.570;2024-01-06T08:20:56;101076.63;;;0.72;100.00
75221;BME280;63802;53.232;6.570;2024-01-06T08:23:22;101075.25;;;0.74;100.00
75221;BME280;63802;53.232;6.570;2024-01-06T08:25:47;101074.28;;;0.65;100.00
75221;BME280;63802;53.232;6.570;2024-01-06T08:28:13;101082.75;;;0.72;100.00
75221;BME280;63802;53.232;6.570;2024-01-06T08:30:43;101098.59;;;0.74;100.00
75221;BME280;63802;53.232;6.570;2024-01-06T08:33:08;101104.97;;;0.78;100.00
75221;BME280;63802;53.232;6.570;2024-01-06T08:35:33;101106.34;;;0.75;100.00
75221;BME280;63802;53.232;6.570;2024-01-06T08:37:59;101099.47;;;0.69;100.00
75221;BME280;63802;53.232;6.570;2024-01-06T08:40:24;101084.56;;;0.58;100.00
75221;BME280;63802;53.232;6.570;2024-01-06T08:42:50;101126.19;;;0.79;100.00
75221;BME280;63802;53.232;6.570;2024-01-06T08:45:15;101106.44;;;0.70;100.00
75221;BME280;63802;53.232;6.570;2024-01-06T08:47:40;101117.09;;;0.75;100.00
75221;BME280;63802;53.232;6.570;2024-01-06T08:50:07;101132.06;;;0.81;100.00
75221;BME280;63802;53.232;6.570;2024-01-06T08:52:32;101109.41;;;0.68;100.00
75221;BME280;63802;53.232;6.570;2024-01-06T08:54:57;101128.34;;;0.77;100.00
75221;BME280;63802;53.232;6.570;2024-01-06T08:57:23;101138.97;;;0.87;100.00
75221;BME280;63802;53.232;6.570;2024-01-06T08:59:49;101148.38;;;0.85;100.00
75221;BME280;63802;53.232;6.570;2024-01-06T09:02:14;101141.72;;;0.82;100.00
75221;BME280;63802;53.232;6.570;2024-01-06T09:04:39;101157.25;;;0.85;100.00
75221;BME280;63802;53.232;6.570;2024-01-06T09:07:05;101154.50;;;0.90;100.00
75221;BME280;63802;53.232;6.570;2024-01-06T09:09:31;101137.56;;;0.71;100.00
75221;BME280;63802;53.232;6.570;2024-01-06T09:11:59;101162.06;;;0.88;100.00
75221;BME280;63802;53.232;6.570;2024-01-06T09:14:26;101168.44;;;0.92;100.00
75221;BME280;63802;53.232;6.570;2024-01-06T09:16:51;101151.88;;;0.85;100.00
75221;BME280;63802;53.232;6.570;2024-01-06T09:19:20;101150.38;;;0.79;100.00
75221;BME280;63802;53.232;6.570;2024-01-06T09:21:45;101170.03;;;0.93;100.00
75221;BME280;63802;53.232;6.570;2024-01-06T09:24:10;101192.56;;;0.97;100.00
75221;BME280;63802;53.232;6.570;2024-01-06T09:26:36;101185.56;;;0.96;100.00
75221;BME280;63802;53.232;6.570;2024-01-06T09:29:01;101198.44;;;0.99;100.00
75221;BME280;63802;53.232;6.570;2024-01-06T09:31:29;101182.38;;;0.94;100.00
75221;BME280;63802;53.232;6.570;2024-01-06T09:33:54;101194.59;;;1.05;100.00
75221;BME280;63802;53.232;6.570;2024-01-06T09:36:20;101191.97;;;1.00;100.00
75221;BME280;63802;53.232;6.570;2024-01-06T09:38:46;101197.34;;;1.00;100.00
75221;BME280;63802;53.232;6.570;2024-01-06T09:41:12;101194.16;;;0.98;100.00
75221;BME280;63802;53.232;6.570;2024-01-06T09:43:38;101212.53;;;1.10;100.00
75221;BME280;63802;53.232;6.570;2024-01-06T09:46:25;101223.50;;;1.13;100.00
75221;BME280;63802;53.232;6.570;2024-01-06T09:48:58;101187.09;;;0.84;100.00
75221;BME280;63802;53.232;6.570;2024-01-06T09:51:24;101215.06;;;1.01;100.00
75221;BME280;63802;53.232;6.570;2024-01-06T09:53:58;101240.72;;;1.12;100.00
75221;BME280;63802;53.232;6.570;2024-01-06T09:56:28;101247.41;;;1.15;100.00
75221;BME280;63802;53.232;6.570;2024-01-06T09:58:55;101246.03;;;1.17;100.00
75221;BME280;63802;53.232;6.570;2024-01-06T10:01:21;101245.00;;;1.13;100.00
75221;BME280;63802;53.232;6.570;2024-01-06T10:03:47;101260.78;;;1.20;100.00
75221;BME280;63802;53.232;6.570;2024-01-06T10:06:14;101236.78;;;1.05;100.00
75221;BME280;63802;53.232;6.570;2024-01-06T10:08:51;101230.53;;;0.91;100.00
75221;BME280;63802;53.232;6.570;2024-01-06T10:11:18;101253.91;;;1.09;100.00
75221;BME280;63802;53.232;6.570;2024-01-06T10:13:50;101229.88;;;0.99;100.00
75221;BME280;63802;53.232;6.570;2024-01-06T10:16:16;101279.28;;;1.21;100.00
75221;BME280;63802;53.232;6.570;2024-01-06T10:18:43;101257.19;;;1.06;100.00
75221;BME280;63802;53.232;6.570;2024-01-06T10:21:10;101264.09;;;1.12;100.00
75221;BME280;63802;53.232;6.570;2024-01-06T10:23:36;101236.66;;;0.91;100.00
75221;BME280;63802;53.232;6.570;2024-01-06T10:26:02;101285.69;;;1.25;100.00
75221;BME280;63802;53.232;6.570;2024-01-06T10:28:28;101268.53;;;1.21;100.00
75221;BME280;63802;53.232;6.570;2024-01-06T10:30:55;101283.72;;;1.31;100.00
75221;BME280;63802;53.232;6.570;2024-01-06T10:33:22;101283.00;;;1.25;100.00
75221;BME280;63802;53.232;6.570;2024-01-06T10:35:48;101279.88;;;1.18;100.00
75221;BME280;63802;53.232;6.570;2024-01-06T10:38:14;101287.66;;;1.20;100.00
75221;BME280;63802;53.232;6.570;2024-01-06T10:40:58;101290.59;;;1.18;100.00
75221;BME280;63802;53.232;6.570;2024-01-06T10:43:25;101295.63;;;1.25;100.00
75221;BME280;63802;53.232;6.570;2024-01-06T10:45:53;101294.25;;;1.27;100.00
75221;BME280;63802;53.232;6.570;2024-01-06T10:48:20;101293.47;;;1.27;100.00
75221;BME280;63802;53.232;6.570;2024-01-06T10:50:48;101299.63;;;1.27;100.00
75221;BME280;63802;53.232;6.570;2024-01-06T10:53:15;101303.47;;;1.21;100.00
75221;BME280;63802;53.232;6.570;2024-01-06T10:55:42;101299.69;;;1.22;100.00
75221;BME280;63802;53.232;6.570;2024-01-06T10:58:09;101277.84;;;1.10;100.00
75221;BME280;63802;53.232;6.570;2024-01-06T11:00:35;101301.81;;;1.25;100.00
75221;BME280;63802;53.232;6.570;2024-01-06T11:03:02;101294.63;;;1.21;100.00
75221;BME280;63802;53.232;6.570;2024-01-06T11:05:29;101290.03;;;1.21;100.00
75221;BME280;63802;53.232;6.570;2024-01-06T11:07:56;101313.06;;;1.27;100.00
75221;BME280;63802;53.232;6.570;2024-01-06T11:10:26;101308.22;;;1.29;100.00
75221;BME280;63802;53.232;6.570;2024-01-06T11:13:14;101314.22;;;1.21;100.00
75221;BME280;63802;53.232;6.570;2024-01-06T11:15:50;101304.28;;;1.22;100.00
75221;BME280;63802;53.232;6.570;2024-01-06T11:18:37;101314.16;;;1.26;100.00
75221;BME280;63802;53.232;6.570;2024-01-06T11:21:15;101314.63;;;1.33;100.00
75221;BME280;63802;53.232;6.570;2024-01-06T11:26:32;101319.50;;;1.31;100.00
75221;BME280;63802;53.232;6.570;2024-01-06T11:29:00;101327.75;;;1.35;100.00
75221;BME280;63802;53.232;6.570;2024-01-06T11:31:33;101326.06;;;1.20;100.00
75221;BME280;63802;53.232;6.570;2024-01-06T11:34:12;101327.03;;;1.29;100.00
75221;BME280;63802;53.232;6.570;2024-01-06T11:36:39;101332.88;;;1.37;100.00
75221;BME280;63802;53.232;6.570;2024-01-06T11:39:06;101341.63;;;1.23;100.00
75221;BME280;63802;53.232;6.570;2024-01-06T11:41:51;101335.94;;;1.25;100.00
75221;BME280;63802;53.232;6.570;2024-01-06T11:44:23;101348.00;;;1.27;100.00
75221;BME280;63802;53.232;6.570;2024-01-06T11:46:49;101340.19;;;1.31;100.00
75221;BME280;63802;53.232;6.570;2024-01-06T11:49:20;101350.13;;;1.30;100.00
75221;BME280;63802;53.232;6.570;2024-01-06T11:51:46;101332.53;;;1.19;100.00
75221;BME280;63802;53.232;6.570;2024-01-06T11:54:11;101345.13;;;1.24;100.00
75221;BME280;63802;53.232;6.570;2024-01-06T11:56:38;101348.59;;;1.24;100.00
75221;BME280;63802;53.232;6.570;2024-01-06T11:59:03;101345.38;;;1.22;100.00
75221;BME280;63802;53.232;6.570;2024-01-06T12:01:38;101356.44;;;1.21;100.00
75221;BME280;63802;53.232;6.570;2024-01-06T12:04:04;101345.47;;;1.17;100.00
75221;BME280;63802;53.232;6.570;2024-01-06T12:06:31;101349.75;;;1.18;100.00
75221;BME280;63802;53.232;6.570;2024-01-06T12:09:05;101360.50;;;1.18;100.00
75221;BME280;63802;53.232;6.570;2024-01-06T12:11:30;101358.91;;;1.17;100.00
75221;BME280;63802;53.232;6.570;2024-01-06T12:13:56;101369.19;;;1.10;100.00
75221;BME280;63802;53.232;6.570;2024-01-06T12:16:25;101340.88;;;0.94;100.00
75221;BME280;63802;53.232;6.570;2024-01-06T12:18:54;101353.63;;;1.07;100.00
75221;BME280;63802;53.232;6.570;2024-01-06T12:21:25;101347.75;;;1.05;100.00
75221;BME280;63802;53.232;6.570;2024-01-06T12:23:50;101351.50;;;1.04;100.00
75221;BME280;63802;53.232;6.570;2024-01-06T12:26:19;101356.47;;;0.92;100.00
75221;BME280;63802;53.232;6.570;2024-01-06T12:28:45;101329.03;;;0.72;100.00
75221;BME280;63802;53.232;6.570;2024-01-06T12:31:11;101336.00;;;0.73;100.00
75221;BME280;63802;53.232;6.570;2024-01-06T12:33:39;101317.13;;;0.54;100.00
75221;BME280;63802;53.232;6.570;2024-01-06T12:36:18;101306.94;;;0.51;100.00
75221;BME280;63802;53.232;6.570;2024-01-06T12:38:43;101362.53;;;0.79;100.00
75221;BME280;63802;53.232;6.570;2024-01-06T12:41:10;101374.81;;;0.85;100.00
75221;BME280;63802;53.232;6.570;2024-01-06T12:43:35;101379.69;;;0.83;100.00
75221;BME280;63802;53.232;6.570;2024-01-06T12:46:01;101356.22;;;0.65;100.00
75221;BME280;63802;53.232;6.570;2024-01-06T12:48:27;101317.22;;;0.44;100.00
75221;BME280;63802;53.232;6.570;2024-01-06T12:50:54;101378.06;;;0.82;100.00